sensor_id;sensor_type;location;lat;lon;timestamp;P1;durP1;ratioP1;P2;durP2;ratioP2
4889;SDS011;2459;42.268;23.112;2022-12-22T00:01:00;75.47;;;27.70;;
4889;SDS011;2459;42.268;23.112;2022-12-22T00:03:44;68.47;;;28.20;;
4889;SDS011;2459;42.268;23.112;2022-12-22T00:06:28;72.63;;;28.40;;
4889;SDS011;2459;42.268;23.112;2022-12-22T00:09:13;91.73;;;30.67;;
4889;SDS011;2459;42.268;23.112;2022-12-22T00:11:57;87.03;;;29.17;;
4889;SDS011;2459;42.268;23.112;2022-12-22T00:14:41;80.73;;;28.17;;
4889;SDS011;2459;42.268;23.112;2022-12-22T00:17:26;58.97;;;25.87;;
4889;SDS011;2459;42.268;23.112;2022-12-22T00:20:11;68.37;;;26.67;;
4889;SDS011;2459;42.268;23.112;2022-12-22T00:22:55;58.30;;;26.70;;
4889;SDS011;2459;42.268;23.112;2022-12-22T00:25:41;82.10;;;29.07;;
4889;SDS011;2459;42.268;23.112;2022-12-22T00:28:24;80.67;;;31.87;;
4889;SDS011;2459;42.268;23.112;2022-12-22T00:31:08;87.30;;;30.10;;
4889;SDS011;2459;42.268;23.112;2022-12-22T00:33:52;83.67;;;30.07;;
4889;SDS011;2459;42.268;23.112;2022-12-22T00:36:36;86.60;;;29.93;;
4889;SDS011;2459;42.268;23.112;2022-12-22T00:39:20;69.20;;;25.13;;
4889;SDS011;2459;42.268;23.112;2022-12-22T00:42:05;82.80;;;31.10;;
4889;SDS011;2459;42.268;23.112;2022-12-22T00:44:49;83.77;;;32.07;;
4889;SDS011;2459;42.268;23.112;2022-12-22T00:47:33;69.30;;;26.73;;
4889;SDS011;2459;42.268;23.112;2022-12-22T00:50:17;63.67;;;27.23;;
4889;SDS011;2459;42.268;23.112;2022-12-22T00:53:01;72.17;;;27.37;;
4889;SDS011;2459;42.268;23.112;2022-12-22T00:55:45;66.37;;;25.93;;
4889;SDS011;2459;42.268;23.112;2022-12-22T00:58:31;64.97;;;27.43;;
4889;SDS011;2459;42.268;23.112;2022-12-22T01:01:15;72.80;;;25.97;;
4889;SDS011;2459;42.268;23.112;2022-12-22T01:03:58;74.30;;;29.80;;
4889;SDS011;2459;42.268;23.112;2022-12-22T01:06:42;72.33;;;29.27;;
4889;SDS011;2459;42.268;23.112;2022-12-22T01:09:26;62.03;;;27.07;;
4889;SDS011;2459;42.268;23.112;2022-12-22T01:12:12;66.57;;;27.10;;
4889;SDS011;2459;42.268;23.112;2022-12-22T01:14:58;71.87;;;26.20;;
4889;SDS011;2459;42.268;23.112;2022-12-22T01:17:42;80.97;;;30.60;;
4889;SDS011;2459;42.268;23.112;2022-12-22T01:20:26;65.20;;;27.07;;
4889;SDS011;2459;42.268;23.112;2022-12-22T01:23:10;71.00;;;27.97;;
4889;SDS011;2459;42.268;23.112;2022-12-22T01:25:53;69.13;;;24.93;;
4889;SDS011;2459;42.268;23.112;2022-12-22T01:28:37;81.63;;;29.30;;
4889;SDS011;2459;42.268;23.112;2022-12-22T01:31:25;68.30;;;24.53;;
4889;SDS011;2459;42.268;23.112;2022-12-22T01:34:10;57.53;;;23.37;;
4889;SDS011;2459;42.268;23.112;2022-12-22T01:36:54;74.50;;;25.90;;
4889;SDS011;2459;42.268;23.112;2022-12-22T01:39:37;90.87;;;33.50;;
4889;SDS011;2459;42.268;23.112;2022-12-22T01:42:21;76.50;;;25.77;;
4889;SDS011;2459;42.268;23.112;2022-12-22T01:45:13;71.13;;;29.77;;
4889;SDS011;2459;42.268;23.112;2022-12-22T01:48:00;64.10;;;24.13;;
4889;SDS011;2459;42.268;23.112;2022-12-22T01:50:44;67.27;;;24.90;;
4889;SDS011;2459;42.268;23.112;2022-12-22T01:53:28;59.83;;;24.30;;
4889;SDS011;2459;42.268;23.112;2022-12-22T01:56:12;54.73;;;24.40;;
4889;SDS011;2459;42.268;23.112;2022-12-22T01:58:57;105.03;;;29.90;;
4889;SDS011;2459;42.268;23.112;2022-12-22T02:01:41;77.57;;;30.40;;
4889;SDS011;2459;42.268;23.112;2022-12-22T02:04:28;57.10;;;22.40;;
4889;SDS011;2459;42.268;23.112;2022-12-22T02:07:27;175.77;;;53.40;;
4889;SDS011;2459;42.268;23.112;2022-12-22T02:10:20;45.93;;;16.83;;
4889;SDS011;2459;42.268;23.112;2022-12-22T02:13:08;49.00;;;20.13;;
4889;SDS011;2459;42.268;23.112;2022-12-22T02:15:58;56.30;;;22.87;;
4889;SDS011;2459;42.268;23.112;2022-12-22T02:18:44;60.40;;;24.20;;
4889;SDS011;2459;42.268;23.112;2022-12-22T02:21:33;60.03;;;22.83;;
4889;SDS011;2459;42.268;23.112;2022-12-22T02:24:23;57.70;;;22.83;;
4889;SDS011;2459;42.268;23.112;2022-12-22T02:27:12;94.57;;;31.67;;
4889;SDS011;2459;42.268;23.112;2022-12-22T02:29:57;88.77;;;30.83;;
4889;SDS011;2459;42.268;23.112;2022-12-22T02:32:43;67.63;;;26.47;;
4889;SDS011;2459;42.268;23.112;2022-12-22T02:35:28;65.30;;;24.67;;
4889;SDS011;2459;42.268;23.112;2022-12-22T02:38:18;52.50;;;19.50;;
4889;SDS011;2459;42.268;23.112;2022-12-22T02:41:06;51.23;;;19.67;;
4889;SDS011;2459;42.268;23.112;2022-12-22T02:44:01;61.97;;;26.73;;
4889;SDS011;2459;42.268;23.112;2022-12-22T02:46:50;110.67;;;33.33;;
4889;SDS011;2459;42.268;23.112;2022-12-22T02:49:37;73.70;;;25.13;;
4889;SDS011;2459;42.268;23.112;2022-12-22T02:52:23;69.17;;;26.27;;
4889;SDS011;2459;42.268;23.112;2022-12-22T02:55:09;50.77;;;21.40;;
4889;SDS011;2459;42.268;23.112;2022-12-22T02:57:55;49.20;;;21.40;;
4889;SDS011;2459;42.268;23.112;2022-12-22T03:00:42;53.80;;;19.57;;
4889;SDS011;2459;42.268;23.112;2022-12-22T03:03:26;49.00;;;18.10;;
4889;SDS011;2459;42.268;23.112;2022-12-22T03:06:10;67.33;;;26.00;;
4889;SDS011;2459;42.268;23.112;2022-12-22T03:08:54;52.83;;;21.83;;
4889;SDS011;2459;42.268;23.112;2022-12-22T03:11:38;71.97;;;20.17;;
4889;SDS011;2459;42.268;23.112;2022-12-22T03:14:22;43.03;;;18.60;;
4889;SDS011;2459;42.268;23.112;2022-12-22T03:17:07;40.87;;;17.43;;
4889;SDS011;2459;42.268;23.112;2022-12-22T03:19:51;41.17;;;18.03;;
4889;SDS011;2459;42.268;23.112;2022-12-22T03:22:35;68.83;;;27.30;;
4889;SDS011;2459;42.268;23.112;2022-12-22T03:25:19;63.90;;;24.50;;
4889;SDS011;2459;42.268;23.112;2022-12-22T03:28:04;92.27;;;36.40;;
4889;SDS011;2459;42.268;23.112;2022-12-22T03:30:30;59.43;;;22.10;;
4889;SDS011;2459;42.268;23.112;2022-12-22T03:32:58;48.57;;;21.80;;
4889;SDS011;2459;42.268;23.112;2022-12-22T03:35:25;49.60;;;19.00;;
4889;SDS011;2459;42.268;23.112;2022-12-22T03:37:51;43.83;;;18.30;;
4889;SDS011;2459;42.268;23.112;2022-12-22T03:40:18;42.80;;;19.17;;
4889;SDS011;2459;42.268;23.112;2022-12-22T03:42:44;55.60;;;21.70;;
4889;SDS011;2459;42.268;23.112;2022-12-22T03:45:28;64.60;;;26.57;;
4889;SDS011;2459;42.268;23.112;2022-12-22T03:48:13;61.27;;;23.23;;
4889;SDS011;2459;42.268;23.112;2022-12-22T03:50:40;44.87;;;21.43;;
4889;SDS011;2459;42.268;23.112;2022-12-22T03:53:06;51.17;;;19.93;;
4889;SDS011;2459;42.268;23.112;2022-12-22T03:55:33;55.97;;;21.90;;
4889;SDS011;2459;42.268;23.112;2022-12-22T03:57:59;44.43;;;18.00;;
4889;SDS011;2459;42.268;23.112;2022-12-22T04:00:25;45.57;;;19.60;;
4889;SDS011;2459;42.268;23.112;2022-12-22T04:02:52;41.53;;;17.20;;
4889;SDS011;2459;42.268;23.112;2022-12-22T04:05:20;49.83;;;19.30;;
4889;SDS011;2459;42.268;23.112;2022-12-22T04:07:46;67.17;;;23.10;;
4889;SDS011;2459;42.268;23.112;2022-12-22T04:10:13;35.53;;;16.47;;
4889;SDS011;2459;42.268;23.112;2022-12-22T04:12:57;46.70;;;17.87;;
4889;SDS011;2459;42.268;23.112;2022-12-22T04:15:24;38.30;;;17.00;;
4889;SDS011;2459;42.268;23.112;2022-12-22T04:17:50;49.70;;;18.97;;
4889;SDS011;2459;42.268;23.112;2022-12-22T04:20:17;39.70;;;17.13;;
4889;SDS011;2459;42.268;23.112;2022-12-22T04:22:45;40.33;;;16.00;;
4889;SDS011;2459;42.268;23.112;2022-12-22T04:25:12;46.83;;;17.30;;
4889;SDS011;2459;42.268;23.112;2022-12-22T04:27:38;53.10;;;17.33;;
4889;SDS011;2459;42.268;23.112;2022-12-22T04:30:05;48.47;;;19.40;;
4889;SDS011;2459;42.268;23.112;2022-12-22T04:32:32;41.00;;;18.90;;
4889;SDS011;2459;42.268;23.112;2022-12-22T04:34:59;53.67;;;20.43;;
4889;SDS011;2459;42.268;23.112;2022-12-22T04:37:25;41.97;;;20.37;;
4889;SDS011;2459;42.268;23.112;2022-12-22T04:39:53;46.87;;;22.23;;
4889;SDS011;2459;42.268;23.112;2022-12-22T04:42:20;44.00;;;17.60;;
4889;SDS011;2459;42.268;23.112;2022-12-22T04:44:46;54.73;;;18.97;;
4889;SDS011;2459;42.268;23.112;2022-12-22T04:47:13;52.93;;;22.30;;
4889;SDS011;2459;42.268;23.112;2022-12-22T04:49:39;60.67;;;22.57;;
4889;SDS011;2459;42.268;23.112;2022-12-22T04:52:05;72.90;;;22.70;;
4889;SDS011;2459;42.268;23.112;2022-12-22T04:54:32;55.43;;;21.20;;
4889;SDS011;2459;42.268;23.112;2022-12-22T04:57:00;56.33;;;21.70;;
4889;SDS011;2459;42.268;23.112;2022-12-22T04:59:26;55.13;;;23.33;;
4889;SDS011;2459;42.268;23.112;2022-12-22T05:01:53;49.83;;;21.07;;
4889;SDS011;2459;42.268;23.112;2022-12-22T05:04:19;65.07;;;23.00;;
4889;SDS011;2459;42.268;23.112;2022-12-22T05:06:46;79.50;;;30.83;;
4889;SDS011;2459;42.268;23.112;2022-12-22T05:09:12;94.87;;;32.40;;
4889;SDS011;2459;42.268;23.112;2022-12-22T05:11:39;70.87;;;26.67;;
4889;SDS011;2459;42.268;23.112;2022-12-22T05:14:07;67.07;;;25.60;;
4889;SDS011;2459;42.268;23.112;2022-12-22T05:16:33;56.70;;;23.63;;
4889;SDS011;2459;42.268;23.112;2022-12-22T05:19:00;58.13;;;25.90;;
4889;SDS011;2459;42.268;23.112;2022-12-22T05:21:26;57.10;;;22.63;;
4889;SDS011;2459;42.268;23.112;2022-12-22T05:23:52;58.57;;;26.60;;
4889;SDS011;2459;42.268;23.112;2022-12-22T05:26:19;60.87;;;27.13;;
4889;SDS011;2459;42.268;23.112;2022-12-22T05:28:46;71.10;;;21.03;;
4889;SDS011;2459;42.268;23.112;2022-12-22T05:31:15;60.17;;;22.30;;
4889;SDS011;2459;42.268;23.112;2022-12-22T05:33:42;56.70;;;24.57;;
4889;SDS011;2459;42.268;23.112;2022-12-22T05:36:08;71.10;;;32.30;;
4889;SDS011;2459;42.268;23.112;2022-12-22T05:38:35;82.53;;;29.30;;
4889;SDS011;2459;42.268;23.112;2022-12-22T05:41:01;87.97;;;36.47;;
4889;SDS011;2459;42.268;23.112;2022-12-22T05:43:28;43.73;;;21.33;;
4889;SDS011;2459;42.268;23.112;2022-12-22T05:45:54;74.93;;;20.57;;
4889;SDS011;2459;42.268;23.112;2022-12-22T05:48:24;74.27;;;22.63;;
4889;SDS011;2459;42.268;23.112;2022-12-22T05:50:50;50.80;;;20.03;;
4889;SDS011;2459;42.268;23.112;2022-12-22T05:53:16;53.60;;;20.30;;
4889;SDS011;2459;42.268;23.112;2022-12-22T05:55:43;62.83;;;22.03;;
4889;SDS011;2459;42.268;23.112;2022-12-22T05:58:09;68.90;;;26.60;;
4889;SDS011;2459;42.268;23.112;2022-12-22T06:00:36;111.00;;;49.10;;
4889;SDS011;2459;42.268;23.112;2022-12-22T06:03:03;87.10;;;29.23;;
4889;SDS011;2459;42.268;23.112;2022-12-22T06:05:31;88.27;;;33.17;;
4889;SDS011;2459;42.268;23.112;2022-12-22T06:07:57;120.13;;;32.10;;
4889;SDS011;2459;42.268;23.112;2022-12-22T06:10:24;174.40;;;55.10;;
4889;SDS011;2459;42.268;23.112;2022-12-22T06:12:50;80.60;;;27.77;;
4889;SDS011;2459;42.268;23.112;2022-12-22T06:15:17;79.53;;;28.37;;
4889;SDS011;2459;42.268;23.112;2022-12-22T06:17:43;68.13;;;28.20;;
4889;SDS011;2459;42.268;23.112;2022-12-22T06:20:10;64.57;;;29.53;;
4889;SDS011;2459;42.268;23.112;2022-12-22T06:22:38;75.40;;;30.17;;
4889;SDS011;2459;42.268;23.112;2022-12-22T06:25:05;110.03;;;29.13;;
4889;SDS011;2459;42.268;23.112;2022-12-22T06:27:31;77.97;;;29.60;;
4889;SDS011;2459;42.268;23.112;2022-12-22T06:29:58;81.47;;;28.63;;
4889;SDS011;2459;42.268;23.112;2022-12-22T06:32:24;75.53;;;27.97;;
4889;SDS011;2459;42.268;23.112;2022-12-22T06:34:51;65.33;;;27.00;;
4889;SDS011;2459;42.268;23.112;2022-12-22T06:37:17;65.93;;;27.10;;
4889;SDS011;2459;42.268;23.112;2022-12-22T06:39:45;78.50;;;27.40;;
4889;SDS011;2459;42.268;23.112;2022-12-22T06:42:11;72.40;;;30.93;;
4889;SDS011;2459;42.268;23.112;2022-12-22T06:45:10;92.10;;;29.80;;
4889;SDS011;2459;42.268;23.112;2022-12-22T06:47:37;79.83;;;33.90;;
4889;SDS011;2459;42.268;23.112;2022-12-22T06:50:04;81.37;;;31.00;;
4889;SDS011;2459;42.268;23.112;2022-12-22T06:52:30;89.10;;;32.53;;
4889;SDS011;2459;42.268;23.112;2022-12-22T06:54:58;82.50;;;33.13;;
4889;SDS011;2459;42.268;23.112;2022-12-22T06:57:26;77.93;;;31.77;;
4889;SDS011;2459;42.268;23.112;2022-12-22T06:59:52;76.67;;;30.97;;
4889;SDS011;2459;42.268;23.112;2022-12-22T07:02:21;91.10;;;35.83;;
4889;SDS011;2459;42.268;23.112;2022-12-22T07:04:48;112.03;;;41.93;;
4889;SDS011;2459;42.268;23.112;2022-12-22T07:07:14;109.50;;;42.53;;
4889;SDS011;2459;42.268;23.112;2022-12-22T07:09:41;120.63;;;43.10;;
4889;SDS011;2459;42.268;23.112;2022-12-22T07:12:08;109.60;;;43.60;;
4889;SDS011;2459;42.268;23.112;2022-12-22T07:14:35;114.53;;;45.57;;
4889;SDS011;2459;42.268;23.112;2022-12-22T07:17:02;122.20;;;49.90;;
4889;SDS011;2459;42.268;23.112;2022-12-22T07:19:28;149.57;;;49.07;;
4889;SDS011;2459;42.268;23.112;2022-12-22T07:21:54;93.60;;;40.00;;
4889;SDS011;2459;42.268;23.112;2022-12-22T07:24:21;101.77;;;42.43;;
4889;SDS011;2459;42.268;23.112;2022-12-22T07:26:49;125.20;;;50.90;;
4889;SDS011;2459;42.268;23.112;2022-12-22T07:29:17;109.93;;;48.80;;
4889;SDS011;2459;42.268;23.112;2022-12-22T07:31:44;123.80;;;45.97;;
4889;SDS011;2459;42.268;23.112;2022-12-22T07:34:10;96.93;;;47.53;;
4889;SDS011;2459;42.268;23.112;2022-12-22T07:36:37;137.40;;;49.87;;
4889;SDS011;2459;42.268;23.112;2022-12-22T07:39:03;116.10;;;50.90;;
4889;SDS011;2459;42.268;23.112;2022-12-22T07:41:30;94.80;;;43.70;;
4889;SDS011;2459;42.268;23.112;2022-12-22T07:44:13;120.43;;;52.10;;
4889;SDS011;2459;42.268;23.112;2022-12-22T07:46:41;124.20;;;47.00;;
4889;SDS011;2459;42.268;23.112;2022-12-22T07:49:09;109.73;;;47.27;;
4889;SDS011;2459;42.268;23.112;2022-12-22T07:51:54;102.67;;;41.50;;
4889;SDS011;2459;42.268;23.112;2022-12-22T07:54:21;105.60;;;40.37;;
4889;SDS011;2459;42.268;23.112;2022-12-22T07:56:47;108.80;;;44.23;;
4889;SDS011;2459;42.268;23.112;2022-12-22T07:59:14;115.50;;;53.33;;
4889;SDS011;2459;42.268;23.112;2022-12-22T08:01:42;129.83;;;55.77;;
4889;SDS011;2459;42.268;23.112;2022-12-22T08:04:09;130.03;;;52.63;;
4889;SDS011;2459;42.268;23.112;2022-12-22T08:06:36;158.47;;;53.80;;
4889;SDS011;2459;42.268;23.112;2022-12-22T08:09:03;121.83;;;55.17;;
4889;SDS011;2459;42.268;23.112;2022-12-22T08:11:30;99.00;;;47.27;;
4889;SDS011;2459;42.268;23.112;2022-12-22T08:13:56;121.03;;;46.30;;
4889;SDS011;2459;42.268;23.112;2022-12-22T08:16:23;103.60;;;43.93;;
4889;SDS011;2459;42.268;23.112;2022-12-22T08:18:51;81.27;;;38.10;;
4889;SDS011;2459;42.268;23.112;2022-12-22T08:21:17;89.10;;;36.90;;
4889;SDS011;2459;42.268;23.112;2022-12-22T08:23:44;80.60;;;40.00;;
4889;SDS011;2459;42.268;23.112;2022-12-22T08:26:11;78.73;;;36.20;;
4889;SDS011;2459;42.268;23.112;2022-12-22T08:28:41;75.83;;;35.30;;
4889;SDS011;2459;42.268;23.112;2022-12-22T08:31:09;85.13;;;42.37;;
4889;SDS011;2459;42.268;23.112;2022-12-22T08:33:36;96.33;;;44.10;;
4889;SDS011;2459;42.268;23.112;2022-12-22T08:36:04;97.53;;;39.40;;
4889;SDS011;2459;42.268;23.112;2022-12-22T08:38:31;82.30;;;35.50;;
4889;SDS011;2459;42.268;23.112;2022-12-22T08:40:57;75.87;;;38.93;;
4889;SDS011;2459;42.268;23.112;2022-12-22T08:43:24;96.20;;;42.17;;
4889;SDS011;2459;42.268;23.112;2022-12-22T08:45:51;87.17;;;34.57;;
4889;SDS011;2459;42.268;23.112;2022-12-22T08:48:17;81.23;;;34.30;;
4889;SDS011;2459;42.268;23.112;2022-12-22T08:50:44;83.87;;;35.93;;
4889;SDS011;2459;42.268;23.112;2022-12-22T08:53:11;81.13;;;37.67;;
4889;SDS011;2459;42.268;23.112;2022-12-22T08:55:38;70.30;;;34.23;;
4889;SDS011;2459;42.268;23.112;2022-12-22T08:58:05;70.63;;;32.33;;
4889;SDS011;2459;42.268;23.112;2022-12-22T09:00:31;67.93;;;30.97;;
4889;SDS011;2459;42.268;23.112;2022-12-22T09:02:58;66.63;;;28.47;;
4889;SDS011;2459;42.268;23.112;2022-12-22T09:05:24;70.87;;;30.43;;
4889;SDS011;2459;42.268;23.112;2022-12-22T09:07:51;90.97;;;38.20;;
4889;SDS011;2459;42.268;23.112;2022-12-22T09:10:18;111.97;;;39.60;;
4889;SDS011;2459;42.268;23.112;2022-12-22T09:12:45;83.77;;;37.17;;
4889;SDS011;2459;42.268;23.112;2022-12-22T09:15:12;91.53;;;40.33;;
4889;SDS011;2459;42.268;23.112;2022-12-22T09:17:38;87.57;;;39.20;;
4889;SDS011;2459;42.268;23.112;2022-12-22T09:20:07;91.60;;;41.50;;
4889;SDS011;2459;42.268;23.112;2022-12-22T09:22:33;87.80;;;40.50;;
4889;SDS011;2459;42.268;23.112;2022-12-22T09:25:00;78.90;;;40.70;;
4889;SDS011;2459;42.268;23.112;2022-12-22T09:27:28;71.03;;;33.80;;
4889;SDS011;2459;42.268;23.112;2022-12-22T09:29:55;62.83;;;32.30;;
4889;SDS011;2459;42.268;23.112;2022-12-22T09:32:21;58.87;;;31.23;;
4889;SDS011;2459;42.268;23.112;2022-12-22T09:34:48;63.53;;;31.53;;
4889;SDS011;2459;42.268;23.112;2022-12-22T09:37:14;74.53;;;33.47;;
4889;SDS011;2459;42.268;23.112;2022-12-22T09:39:41;59.43;;;32.10;;
4889;SDS011;2459;42.268;23.112;2022-12-22T09:42:09;72.43;;;32.63;;
4889;SDS011;2459;42.268;23.112;2022-12-22T09:44:38;59.57;;;22.87;;
4889;SDS011;2459;42.268;23.112;2022-12-22T09:47:09;70.10;;;27.90;;
4889;SDS011;2459;42.268;23.112;2022-12-22T09:49:38;55.83;;;25.33;;
4889;SDS011;2459;42.268;23.112;2022-12-22T09:52:04;40.10;;;21.73;;
4889;SDS011;2459;42.268;23.112;2022-12-22T09:54:31;46.80;;;24.73;;
4889;SDS011;2459;42.268;23.112;2022-12-22T09:56:58;61.13;;;27.30;;
4889;SDS011;2459;42.268;23.112;2022-12-22T09:59:25;75.67;;;33.40;;
4889;SDS011;2459;42.268;23.112;2022-12-22T10:02:04;50.13;;;25.20;;
4889;SDS011;2459;42.268;23.112;2022-12-22T10:04:38;67.47;;;29.60;;
4889;SDS011;2459;42.268;23.112;2022-12-22T10:07:11;70.97;;;28.37;;
4889;SDS011;2459;42.268;23.112;2022-12-22T10:09:39;69.93;;;32.07;;
4889;SDS011;2459;42.268;23.112;2022-12-22T10:12:10;60.73;;;27.97;;
4889;SDS011;2459;42.268;23.112;2022-12-22T10:14:40;69.10;;;31.90;;
4889;SDS011;2459;42.268;23.112;2022-12-22T10:17:16;53.97;;;28.50;;
4889;SDS011;2459;42.268;23.112;2022-12-22T10:19:44;75.63;;;28.43;;
4889;SDS011;2459;42.268;23.112;2022-12-22T10:22:16;75.60;;;27.30;;
4889;SDS011;2459;42.268;23.112;2022-12-22T10:24:44;53.10;;;25.30;;
4889;SDS011;2459;42.268;23.112;2022-12-22T10:27:11;57.00;;;26.30;;
4889;SDS011;2459;42.268;23.112;2022-12-22T10:29:37;66.87;;;25.80;;
4889;SDS011;2459;42.268;23.112;2022-12-22T10:32:10;62.70;;;29.43;;
4889;SDS011;2459;42.268;23.112;2022-12-22T10:34:38;54.63;;;25.07;;
4889;SDS011;2459;42.268;23.112;2022-12-22T10:37:08;62.20;;;25.73;;
4889;SDS011;2459;42.268;23.112;2022-12-22T10:39:35;60.33;;;24.50;;
4889;SDS011;2459;42.268;23.112;2022-12-22T10:42:06;56.70;;;26.60;;
4889;SDS011;2459;42.268;23.112;2022-12-22T10:44:33;45.97;;;23.70;;
4889;SDS011;2459;42.268;23.112;2022-12-22T10:47:10;58.47;;;24.90;;
4889;SDS011;2459;42.268;23.112;2022-12-22T10:49:38;50.73;;;24.80;;
4889;SDS011;2459;42.268;23.112;2022-12-22T10:52:09;59.33;;;24.20;;
4889;SDS011;2459;42.268;23.112;2022-12-22T10:54:36;56.33;;;24.87;;
4889;SDS011;2459;42.268;23.112;2022-12-22T10:57:05;45.00;;;23.50;;
4889;SDS011;2459;42.268;23.112;2022-12-22T10:59:32;66.07;;;28.83;;
4889;SDS011;2459;42.268;23.112;2022-12-22T11:04:45;62.13;;;27.93;;
4889;SDS011;2459;42.268;23.112;2022-12-22T11:07:12;70.13;;;26.10;;
4889;SDS011;2459;42.268;23.112;2022-12-22T11:09:39;77.40;;;31.47;;
4889;SDS011;2459;42.268;23.112;2022-12-22T11:12:07;78.60;;;30.10;;
4889;SDS011;2459;42.268;23.112;2022-12-22T11:14:42;72.73;;;32.87;;
4889;SDS011;2459;42.268;23.112;2022-12-22T11:17:13;65.73;;;30.10;;
4889;SDS011;2459;42.268;23.112;2022-12-22T11:19:47;66.27;;;28.27;;
4889;SDS011;2459;42.268;23.112;2022-12-22T11:22:19;70.60;;;30.90;;
4889;SDS011;2459;42.268;23.112;2022-12-22T11:24:51;68.50;;;33.60;;
4889;SDS011;2459;42.268;23.112;2022-12-22T11:27:26;76.57;;;29.90;;
4889;SDS011;2459;42.268;23.112;2022-12-22T11:30:00;96.50;;;31.37;;
4889;SDS011;2459;42.268;23.112;2022-12-22T11:35:16;80.13;;;29.83;;
4889;SDS011;2459;42.268;23.112;2022-12-22T11:37:46;91.40;;;33.40;;
4889;SDS011;2459;42.268;23.112;2022-12-22T11:40:16;79.07;;;30.70;;
4889;SDS011;2459;42.268;23.112;2022-12-22T11:42:50;82.80;;;35.60;;
4889;SDS011;2459;42.268;23.112;2022-12-22T11:45:23;68.83;;;32.70;;
4889;SDS011;2459;42.268;23.112;2022-12-22T11:47:58;70.93;;;31.00;;
4889;SDS011;2459;42.268;23.112;2022-12-22T11:50:31;64.07;;;29.20;;
4889;SDS011;2459;42.268;23.112;2022-12-22T11:53:03;79.63;;;32.30;;
4889;SDS011;2459;42.268;23.112;2022-12-22T11:55:33;60.87;;;28.00;;
4889;SDS011;2459;42.268;23.112;2022-12-22T11:58:09;85.47;;;30.93;;
4889;SDS011;2459;42.268;23.112;2022-12-22T12:00:39;75.93;;;32.00;;
4889;SDS011;2459;42.268;23.112;2022-12-22T12:06:06;64.90;;;31.17;;
4889;SDS011;2459;42.268;23.112;2022-12-22T12:08:38;84.43;;;32.27;;
4889;SDS011;2459;42.268;23.112;2022-12-22T12:11:10;50.43;;;27.00;;
4889;SDS011;2459;42.268;23.112;2022-12-22T12:13:43;57.57;;;27.33;;
4889;SDS011;2459;42.268;23.112;2022-12-22T12:16:15;59.87;;;23.40;;
4889;SDS011;2459;42.268;23.112;2022-12-22T12:18:46;77.47;;;26.00;;
4889;SDS011;2459;42.268;23.112;2022-12-22T12:21:22;42.27;;;20.43;;
4889;SDS011;2459;42.268;23.112;2022-12-22T12:23:57;39.43;;;19.00;;
4889;SDS011;2459;42.268;23.112;2022-12-22T12:26:27;40.00;;;16.93;;
4889;SDS011;2459;42.268;23.112;2022-12-22T12:28:59;32.37;;;16.73;;
4889;SDS011;2459;42.268;23.112;2022-12-22T12:31:29;56.20;;;17.67;;
4889;SDS011;2459;42.268;23.112;2022-12-22T12:33:57;30.63;;;16.73;;
4889;SDS011;2459;42.268;23.112;2022-12-22T12:36:28;33.50;;;15.77;;
4889;SDS011;2459;42.268;23.112;2022-12-22T12:38:58;23.53;;;14.50;;
4889;SDS011;2459;42.268;23.112;2022-12-22T12:41:29;71.37;;;25.27;;
4889;SDS011;2459;42.268;23.112;2022-12-22T12:43:56;32.33;;;14.00;;
4889;SDS011;2459;42.268;23.112;2022-12-22T12:46:43;29.03;;;13.60;;
4889;SDS011;2459;42.268;23.112;2022-12-22T12:51:52;52.73;;;14.77;;
4889;SDS011;2459;42.268;23.112;2022-12-22T12:54:33;76.03;;;19.87;;
4889;SDS011;2459;42.268;23.112;2022-12-22T12:57:01;28.77;;;14.63;;
4889;SDS011;2459;42.268;23.112;2022-12-22T12:59:44;61.37;;;15.63;;
4889;SDS011;2459;42.268;23.112;2022-12-22T13:05:03;30.90;;;13.37;;
4889;SDS011;2459;42.268;23.112;2022-12-22T13:10:20;29.07;;;14.87;;
4889;SDS011;2459;42.268;23.112;2022-12-22T13:12:48;35.80;;;19.13;;
4889;SDS011;2459;42.268;23.112;2022-12-22T13:18:00;65.03;;;21.80;;
4889;SDS011;2459;42.268;23.112;2022-12-22T13:20:27;45.73;;;19.67;;
4889;SDS011;2459;42.268;23.112;2022-12-22T13:22:55;75.00;;;21.10;;
4889;SDS011;2459;42.268;23.112;2022-12-22T13:25:24;119.73;;;22.87;;
4889;SDS011;2459;42.268;23.112;2022-12-22T13:27:52;64.30;;;17.63;;
4889;SDS011;2459;42.268;23.112;2022-12-22T13:30:20;45.60;;;16.17;;
4889;SDS011;2459;42.268;23.112;2022-12-22T13:32:47;23.33;;;14.60;;
4889;SDS011;2459;42.268;23.112;2022-12-22T13:35:15;53.60;;;17.50;;
4889;SDS011;2459;42.268;23.112;2022-12-22T13:37:43;39.00;;;15.27;;
4889;SDS011;2459;42.268;23.112;2022-12-22T13:40:12;36.20;;;16.20;;
4889;SDS011;2459;42.268;23.112;2022-12-22T13:42:41;35.53;;;18.40;;
4889;SDS011;2459;42.268;23.112;2022-12-22T13:45:13;61.20;;;20.90;;
4889;SDS011;2459;42.268;23.112;2022-12-22T13:47:40;50.10;;;19.93;;
4889;SDS011;2459;42.268;23.112;2022-12-22T13:50:14;59.70;;;22.23;;
4889;SDS011;2459;42.268;23.112;2022-12-22T13:52:41;57.33;;;25.97;;
4889;SDS011;2459;42.268;23.112;2022-12-22T13:55:09;62.97;;;24.27;;
4889;SDS011;2459;42.268;23.112;2022-12-22T13:57:36;51.20;;;22.50;;
4889;SDS011;2459;42.268;23.112;2022-12-22T14:00:15;70.57;;;34.63;;
4889;SDS011;2459;42.268;23.112;2022-12-22T14:02:43;44.33;;;24.70;;
4889;SDS011;2459;42.268;23.112;2022-12-22T14:05:10;108.13;;;38.00;;
4889;SDS011;2459;42.268;23.112;2022-12-22T14:07:37;86.77;;;36.37;;
4889;SDS011;2459;42.268;23.112;2022-12-22T14:10:04;127.23;;;48.67;;
4889;SDS011;2459;42.268;23.112;2022-12-22T14:12:34;174.40;;;50.27;;
4889;SDS011;2459;42.268;23.112;2022-12-22T14:15:02;165.93;;;50.53;;
4889;SDS011;2459;42.268;23.112;2022-12-22T14:17:31;117.23;;;43.57;;
4889;SDS011;2459;42.268;23.112;2022-12-22T14:19:59;174.10;;;43.17;;
4889;SDS011;2459;42.268;23.112;2022-12-22T14:22:26;85.47;;;35.80;;
4889;SDS011;2459;42.268;23.112;2022-12-22T14:24:54;82.27;;;32.77;;
4889;SDS011;2459;42.268;23.112;2022-12-22T14:27:28;109.33;;;35.73;;
4889;SDS011;2459;42.268;23.112;2022-12-22T14:29:55;101.93;;;36.67;;
4889;SDS011;2459;42.268;23.112;2022-12-22T14:32:38;96.30;;;34.73;;
4889;SDS011;2459;42.268;23.112;2022-12-22T14:35:14;98.37;;;35.97;;
4889;SDS011;2459;42.268;23.112;2022-12-22T14:37:41;100.00;;;37.93;;
4889;SDS011;2459;42.268;23.112;2022-12-22T14:40:12;100.63;;;37.20;;
4889;SDS011;2459;42.268;23.112;2022-12-22T14:42:41;123.37;;;44.40;;
4889;SDS011;2459;42.268;23.112;2022-12-22T14:45:12;114.53;;;41.03;;
4889;SDS011;2459;42.268;23.112;2022-12-22T14:47:40;150.40;;;56.70;;
4889;SDS011;2459;42.268;23.112;2022-12-22T14:50:13;169.17;;;54.20;;
4889;SDS011;2459;42.268;23.112;2022-12-22T14:52:42;144.87;;;46.57;;
4889;SDS011;2459;42.268;23.112;2022-12-22T14:55:20;109.43;;;37.47;;
4889;SDS011;2459;42.268;23.112;2022-12-22T14:57:49;128.50;;;32.60;;
4889;SDS011;2459;42.268;23.112;2022-12-22T15:00:26;156.63;;;35.30;;
4889;SDS011;2459;42.268;23.112;2022-12-22T15:02:55;117.20;;;37.97;;
4889;SDS011;2459;42.268;23.112;2022-12-22T15:05:25;151.20;;;33.37;;
4889;SDS011;2459;42.268;23.112;2022-12-22T15:07:52;81.50;;;30.50;;
4889;SDS011;2459;42.268;23.112;2022-12-22T15:13:02;133.77;;;31.27;;
4889;SDS011;2459;42.268;23.112;2022-12-22T15:15:30;164.60;;;37.07;;
4889;SDS011;2459;42.268;23.112;2022-12-22T15:17:59;127.33;;;31.57;;
4889;SDS011;2459;42.268;23.112;2022-12-22T15:20:26;126.67;;;40.00;;
4889;SDS011;2459;42.268;23.112;2022-12-22T15:22:53;119.93;;;40.23;;
4889;SDS011;2459;42.268;23.112;2022-12-22T15:25:20;116.00;;;39.03;;